Time;durP1;ratioP1;P1;durP2;ratioP2;P2;SDS_P1;SDS_P2;PMS_P1;PMS_P2;Temp;Humidity;BMP_temperature;BMP_pressure;BME280_temperature;BME280_humidity;BME280_pressure;Samples;Min_cycle;Max_cycle;Signal;HPM_P1;HPM_P2
2023/06/17 00:01:15;;;;;;;9.45;4.40;;;20.20;80.50;;;;;;5117955;28;20069;-91
2023/06/17 00:03:43;;;;;;;7.15;3.90;;;20.20;81.80;;;;;;5135895;28;20027;-91
2023/06/17 00:06:10;;;;;;;7.35;3.63;;;20.20;82.10;;;;;;5137144;27;20031;-91
2023/06/17 00:08:38;;;;;;;5.28;4.05;;;20.10;82.40;;;;;;5137613;28;20027;-91
2023/06/17 00:11:04;;;;;;;6.50;3.80;;;20.10;82.70;;;;;;5137601;28;20023;-91
2023/06/17 00:13:30;;;;;;;9.95;4.00;;;20.00;82.60;;;;;;5122425;28;20024;-91
2023/06/17 00:15:56;;;;;;;9.00;4.03;;;20.00;82.70;;;;;;5147355;28;20042;-90
2023/06/17 00:18:26;;;;;;;7.30;4.50;;;20.00;83.30;;;;;;5151631;27;20023;-91
2023/06/17 00:20:53;;;;;;;6.18;3.95;;;19.90;83.00;;;;;;5148723;27;20042;-91
2023/06/17 00:23:20;;;;;;;6.70;4.10;;;19.90;83.30;;;;;;5147470;28;20031;-91
2023/06/17 00:25:47;;;;;;;5.22;3.63;;;19.80;83.10;;;;;;5140557;28;20087;-91
2023/06/17 00:28:14;;;;;;;5.60;4.07;;;19.80;83.20;;;;;;5139658;28;20035;-90
2023/06/17 00:30:40;;;;;;;8.20;3.90;;;19.80;83.20;;;;;;5139300;28;20027;-91
2023/06/17 00:33:06;;;;;;;5.65;3.75;;;19.70;83.60;;;;;;5141849;28;20023;-91
2023/06/17 00:35:33;;;;;;;6.25;4.47;;;19.70;83.80;;;;;;5142723;28;20358;-90
2023/06/17 00:37:59;;;;;;;5.95;3.70;;;19.70;83.80;;;;;;5144317;28;20034;-91
2023/06/17 00:40:25;;;;;;;8.60;4.00;;;19.60;83.80;;;;;;5144396;28;20023;-91
2023/06/17 00:42:51;;;;;;;10.80;4.20;;;19.60;84.20;;;;;;5143966;28;20069;-91
2023/06/17 00:45:17;;;;;;;7.22;4.25;;;19.60;84.50;;;;;;5127139;28;20027;-90
2023/06/17 00:47:46;;;;;;;9.40;4.28;;;19.50;84.80;;;;;;5138571;28;20560;-90
2023/06/17 00:50:14;;;;;;;13.07;4.95;;;19.50;84.10;;;;;;5116693;28;20099;-90
2023/06/17 00:52:45;;;;;;;9.18;4.75;;;19.40;84.30;;;;;;5131903;28;20031;-91
2023/06/17 00:55:11;;;;;;;8.00;4.25;;;19.40;84.70;;;;;;5132933;28;20026;-89
2023/06/17 00:57:38;;;;;;;6.30;4.28;;;19.40;84.40;;;;;;5130974;27;20043;-91
2023/06/17 01:00:09;;;;;;;7.55;4.30;;;19.30;84.60;;;;;;5134270;28;20035;-90
2023/06/17 01:02:39;;;;;;;6.90;4.45;;;19.30;84.60;;;;;;5139658;28;20098;-91
2023/06/17 01:05:14;;;;;;;8.13;4.70;;;19.30;84.70;;;;;;5123827;28;20012;-91
2023/06/17 01:08:19;;;;;;;7.45;4.75;;;19.20;84.80;;;;;;5139971;28;20026;-91
2023/06/17 01:11:07;;;;;;;9.50;4.97;;;19.20;84.60;;;;;;5141265;28;20015;-90
2023/06/17 01:13:35;;;;;;;7.38;5.30;;;19.10;84.50;;;;;;5141042;28;20019;-90
2023/06/17 01:16:02;;;;;;;9.55;5.38;;;19.10;83.70;;;;;;5140683;28;20023;-90
2023/06/17 01:18:29;;;;;;;7.55;5.30;;;19.00;84.70;;;;;;5140644;28;20095;-90
2023/06/17 01:20:56;;;;;;;7.70;5.53;;;19.00;85.10;;;;;;5140926;28;20012;-90
2023/06/17 01:23:26;;;;;;;8.85;5.18;;;18.90;85.10;;;;;;5140920;28;20051;-91
2023/06/17 01:25:57;;;;;;;7.57;5.30;;;18.90;84.70;;;;;;5140617;28;20011;-90
2023/06/17 01:28:24;;;;;;;;;;;18.90;85.40;;;;;;5141317;28;20061;-90
2023/06/17 01:30:54;;;;;;;8.70;5.40;;;18.90;86.00;;;;;;5138130;28;19967;-89
2023/06/17 01:33:21;;;;;;;9.00;5.47;;;18.80;85.50;;;;;;5123772;28;20019;-92
2023/06/17 01:36:00;;;;;;;12.60;5.78;;;18.70;84.60;;;;;;5123316;28;20023;-91
2023/06/17 01:38:38;;;;;;;7.85;5.80;;;18.70;83.50;;;;;;5140216;28;20012;-91
2023/06/17 01:41:10;;;;;;;8.23;5.63;;;18.70;83.60;;;;;;5132835;28;20076;-91
2023/06/17 01:43:39;;;;;;;8.48;5.47;;;18.60;84.00;;;;;;5128182;28;20023;-92
2023/06/17 01:46:06;;;;;;;7.57;5.72;;;18.60;84.70;;;;;;5117708;28;20027;-91
2023/06/17 01:48:32;;;;;;;8.95;5.13;;;18.50;85.10;;;;;;5119695;28;20051;-91
2023/06/17 01:50:58;;;;;;;8.63;6.10;;;18.40;84.10;;;;;;5117748;28;20024;-91
2023/06/17 01:53:27;;;;;;;10.45;5.80;;;18.40;84.10;;;;;;5117210;28;20053;-91
2023/06/17 01:55:55;;;;;;;9.27;5.68;;;18.40;84.20;;;;;;5105575;28;20034;-90
2023/06/17 01:58:21;;;;;;;9.55;6.10;;;18.30;85.40;;;;;;5123316;28;20130;-91
2023/06/17 02:00:47;;;;;;;9.32;6.43;;;18.30;85.90;;;;;;5121255;28;20066;-90
2023/06/17 02:03:18;;;;;;;9.55;6.47;;;18.30;86.50;;;;;;5118085;28;20031;-91
2023/06/17 02:05:44;;;;;;;;;;;18.30;86.80;;;;;;5100287;28;20040;-91
2023/06/17 02:08:11;;;;;;;7.90;6.22;;;18.30;87.80;;;;;;5116879;28;19912;-92
2023/06/17 02:10:37;;;;;;;13.45;6.47;;;18.30;87.50;;;;;;5116515;28;20028;-92
2023/06/17 02:13:03;;;;;;;9.95;6.07;;;18.30;87.90;;;;;;5100129;28;20120;-90
2023/06/17 02:15:30;;;;;;;9.25;6.30;;;18.30;87.50;;;;;;5116700;28;20039;-90
2023/06/17 02:17:56;;;;;;;9.73;7.07;;;18.30;87.20;;;;;;5117801;28;20035;-91
2023/06/17 02:20:23;;;;;;;8.77;6.82;;;18.20;87.00;;;;;;5083340;28;20123;-90
2023/06/17 02:22:49;;;;;;;8.85;7.40;;;18.20;86.90;;;;;;5116963;28;20118;-90
2023/06/17 02:25:15;;;;;;;9.73;6.85;;;18.20;86.80;;;;;;5099918;28;20055;-90
2023/06/17 02:27:41;;;;;;;9.35;8.15;;;18.20;86.90;;;;;;5099710;28;20028;-89
2023/06/17 02:30:09;;;;;;;9.07;7.22;;;18.10;86.70;;;;;;5098863;28;20051;-90
2023/06/17 02:32:35;;;;;;;10.18;7.20;;;18.10;86.60;;;;;;5099503;28;20087;-90
2023/06/17 02:35:02;;;;;;;11.38;7.18;;;18.10;86.80;;;;;;5120720;28;20044;-89
2023/06/17 02:37:28;;;;;;;9.93;7.10;;;18.10;86.80;;;;;;5125110;28;20084;-89
2023/06/17 02:39:54;;;;;;;8.77;6.90;;;18.00;86.70;;;;;;5100791;28;20534;-90
2023/06/17 02:42:20;;;;;;;10.98;7.07;;;18.00;86.60;;;;;;5116062;28;20048;-90
2023/06/17 02:44:46;;;;;;;10.15;7.50;;;18.00;86.60;;;;;;5115937;28;20020;-89
2023/06/17 02:47:12;;;;;;;8.50;7.10;;;18.00;86.40;;;;;;5115881;28;20118;-89
2023/06/17 02:49:38;;;;;;;10.63;7.43;;;17.90;86.50;;;;;;5115504;28;20054;-90
2023/06/17 02:52:05;;;;;;;13.93;8.43;;;17.90;86.70;;;;;;5116910;28;20028;-90
2023/06/17 02:54:31;;;;;;;12.68;8.00;;;17.90;86.50;;;;;;5115927;28;20035;-90
2023/06/17 02:56:56;;;;;;;11.52;7.82;;;17.80;86.60;;;;;;5103496;27;20062;-89
2023/06/17 02:59:22;;;;;;;9.15;7.53;;;17.80;86.50;;;;;;5119986;27;20047;-89
2023/06/17 03:01:48;;;;;;;7.90;6.80;;;17.80;86.80;;;;;;5127505;27;20381;-91
2023/06/17 03:04:14;;;;;;;9.15;6.97;;;17.80;86.90;;;;;;5120284;27;20031;-90
2023/06/17 03:06:44;;;;;;;10.10;8.10;;;17.70;87.10;;;;;;5137149;27;20027;-90
2023/06/17 03:09:11;;;;;;;14.40;8.07;;;17.70;87.20;;;;;;5101973;27;20027;-91
2023/06/17 03:11:37;;;;;;;10.18;8.55;;;17.70;87.10;;;;;;5118938;27;20464;-90
2023/06/17 03:14:03;;;;;;;11.68;8.10;;;17.70;87.20;;;;;;5118721;27;20035;-90
2023/06/17 03:16:33;;;;;;;11.57;8.15;;;17.60;87.20;;;;;;5118502;27;20038;-91
2023/06/17 03:19:00;;;;;;;11.65;8.63;;;17.60;87.20;;;;;;5118980;27;20023;-90
2023/06/17 03:21:29;;;;;;;9.02;7.57;;;17.60;87.30;;;;;;5118084;27;20023;-90
2023/06/17 03:23:58;;;;;;;11.48;7.85;;;17.60;87.30;;;;;;5118769;27;20026;-90
2023/06/17 03:26:25;;;;;;;9.68;7.70;;;17.50;87.10;;;;;;5101813;27;20095;-90
2023/06/17 03:28:51;;;;;;;11.07;7.53;;;17.50;87.30;;;;;;5102023;27;20049;-90
2023/06/17 03:31:20;;;;;;;10.85;8.27;;;17.50;86.20;;;;;;5136595;27;20042;-89
2023/06/17 03:33:49;;;;;;;13.60;8.00;;;17.40;85.70;;;;;;5118720;27;20023;-89
2023/06/17 03:36:17;;;;;;;10.57;7.72;;;17.40;86.40;;;;;;5119646;28;20031;-91
2023/06/17 03:38:57;;;;;;;9.45;7.72;;;17.40;86.70;;;;;;5122837;28;20097;-90
2023/06/17 03:41:26;;;;;;;11.48;7.85;;;17.30;87.00;;;;;;5122591;28;20030;-90
2023/06/17 03:43:52;;;;;;;12.75;8.13;;;17.30;87.40;;;;;;5107017;28;20027;-91
2023/06/17 03:46:19;;;;;;;10.18;8.10;;;17.30;87.90;;;;;;5121372;28;20472;-90
2023/06/17 03:48:44;;;;;;;12.38;8.55;;;17.30;88.10;;;;;;5120573;28;20023;-90
2023/06/17 03:51:11;;;;;;;11.68;8.73;;;17.30;88.50;;;;;;5118350;28;20092;-89
2023/06/17 03:53:37;;;;;;;12.18;8.02;;;17.30;88.80;;;;;;5118216;28;20015;-90
2023/06/17 03:56:06;;;;;;;11.95;7.38;;;17.30;88.10;;;;;;5117743;28;20107;-90
2023/06/17 03:58:32;;;;;;;9.98;8.52;;;17.20;87.70;;;;;;5114285;28;20048;-90
2023/06/17 04:00:58;;;;;;;10.60;8.05;;;17.20;87.10;;;;;;5114542;28;20024;-90
2023/06/17 04:03:26;;;;;;;18.67;9.95;;;17.20;87.60;;;;;;5114328;28;20028;-90
2023/06/17 04:05:52;;;;;;;10.15;8.95;;;17.10;88.00;;;;;;5097740;28;20028;-91
2023/06/17 04:08:18;;;;;;;12.32;9.80;;;17.10;88.60;;;;;;5114062;28;20023;-90
2023/06/17 04:10:47;;;;;;;14.32;10.45;;;17.10;89.10;;;;;;5114525;28;20133;-90
2023/06/17 04:13:14;;;;;;;13.77;10.88;;;17.10;89.40;;;;;;5114928;28;20019;-90
2023/06/17 04:15:40;;;;;;;12.35;10.50;;;17.10;89.80;;;;;;5121899;28;20551;-89
2023/06/17 04:18:05;;;;;;;13.65;10.05;;;17.10;90.00;;;;;;5129396;28;20024;-89
2023/06/17 04:20:37;;;;;;;14.50;10.00;;;17.20;90.10;;;;;;5117861;28;20035;-90
2023/06/17 04:23:03;;;;;;;25.45;11.57;;;17.20;90.00;;;;;;5115423;28;20051;-90
2023/06/17 04:25:32;;;;;;;15.02;10.20;;;17.20;90.00;;;;;;5113218;28;20060;-90
2023/06/17 04:28:00;;;;;;;14.57;10.00;;;17.20;90.00;;;;;;5097528;28;20039;-91
2023/06/17 04:30:26;;;;;;;13.00;10.52;;;17.20;90.10;;;;;;5113930;28;20031;-90
2023/06/17 04:32:57;;;;;;;15.55;10.98;;;17.20;90.20;;;;;;5113877;28;20035;-90
2023/06/17 04:35:24;;;;;;;16.33;10.82;;;17.20;90.20;;;;;;5101730;28;20465;-90
2023/06/17 04:37:53;;;;;;;17.85;10.77;;;17.20;90.30;;;;;;5100749;28;20020;-90
2023/06/17 04:40:20;;;;;;;13.75;10.85;;;17.30;90.40;;;;;;5101121;28;20031;-90
2023/06/17 04:42:47;;;;;;;17.15;11.52;;;17.30;90.50;;;;;;5118005;28;20019;-90
2023/06/17 04:45:15;;;;;;;19.88;12.85;;;17.30;90.50;;;;;;5118664;28;20030;-89
2023/06/17 04:47:42;;;;;;;15.18;11.98;;;17.30;90.60;;;;;;5117753;28;20032;-90
2023/06/17 04:50:08;;;;;;;15.77;12.07;;;17.30;90.60;;;;;;5100381;28;20055;-91
2023/06/17 04:52:33;;;;;;;14.68;12.20;;;17.40;90.80;;;;;;5112625;28;20024;-90
2023/06/17 04:54:59;;;;;;;18.33;12.75;;;17.40;90.80;;;;;;5123530;28;20062;-90
2023/06/17 04:57:25;;;;;;;15.15;10.90;;;17.40;91.10;;;;;;5125739;27;20130;-91
2023/06/17 04:59:51;;;;;;;13.73;11.38;;;17.40;91.00;;;;;;5120997;27;20019;-91
2023/06/17 05:02:16;;;;;;;19.40;11.95;;;17.50;91.10;;;;;;5104429;27;20030;-90
2023/06/17 05:04:42;;;;;;;18.80;13.70;;;17.50;91.20;;;;;;5121621;27;20023;-91
2023/06/17 05:07:08;;;;;;;16.65;13.55;;;17.50;91.30;;;;;;5121349;27;20027;-91
2023/06/17 05:09:33;;;;;;;17.42;13.00;;;17.50;91.40;;;;;;5104170;27;20019;-91
2023/06/17 05:12:01;;;;;;;17.10;13.73;;;17.60;91.40;;;;;;5122064;27;20468;-90
2023/06/17 05:14:27;;;;;;;16.13;12.88;;;17.60;91.50;;;;;;5121346;27;20031;-91
2023/06/17 05:16:53;;;;;;;17.20;13.40;;;17.60;91.60;;;;;;5121590;27;20033;-91
2023/06/17 05:19:19;;;;;;;21.83;13.18;;;17.70;91.70;;;;;;5120628;27;20023;-90
2023/06/17 05:21:48;;;;;;;15.15;12.68;;;17.70;91.80;;;;;;5107396;27;20023;-90
2023/06/17 05:24:14;;;;;;;17.88;14.45;;;17.80;91.80;;;;;;5110423;27;20060;-88
2023/06/17 05:26:40;;;;;;;13.93;12.32;;;17.80;91.80;;;;;;5142027;27;20023;-91
2023/06/17 05:29:06;;;;;;;15.65;13.75;;;17.80;91.90;;;;;;5160394;27;20491;-92
2023/06/17 05:31:32;;;;;;;17.92;13.43;;;17.90;92.00;;;;;;5126417;27;20023;-90
2023/06/17 05:33:57;;;;;;;20.38;12.85;;;17.90;92.00;;;;;;5152581;27;20027;-88
2023/06/17 05:36:23;;;;;;;13.75;12.25;;;17.90;92.10;;;;;;5163522;27;20078;-87
2023/06/17 05:38:49;;;;;;;15.40;12.35;;;17.90;92.10;;;;;;5115873;28;20067;-90
2023/06/17 05:41:15;;;;;;;13.70;12.05;;;18.00;92.20;;;;;;5102006;28;20054;-88
2023/06/17 05:43:46;;;;;;;13.95;12.30;;;18.00;92.40;;;;;;5101438;28;20049;-92
2023/06/17 05:46:14;;;;;;;14.82;12.13;;;18.10;92.50;;;;;;5118531;28;20028;-91
2023/06/17 05:48:40;;;;;;;12.85;11.13;;;18.10;92.60;;;;;;5099831;28;20027;-91
2023/06/17 05:51:06;;;;;;;12.35;10.93;;;18.20;92.60;;;;;;5089862;27;20023;-91
2023/06/17 05:53:32;;;;;;;15.35;11.73;;;18.20;92.70;;;;;;5119935;27;20020;-90
2023/06/17 05:55:57;;;;;;;12.38;10.88;;;18.30;92.90;;;;;;5119104;28;20377;-89
2023/06/17 05:58:23;;;;;;;13.15;11.75;;;18.30;93.00;;;;;;5119398;28;20131;-89
2023/06/17 06:00:49;;;;;;;15.40;11.40;;;18.30;93.10;;;;;;5125663;28;20023;-89
2023/06/17 06:03:14;;;;;;;13.18;10.75;;;18.40;93.20;;;;;;5126904;28;20038;-89
2023/06/17 06:05:40;;;;;;;12.70;10.50;;;18.50;93.40;;;;;;5100140;28;20016;-90
2023/06/17 06:08:12;;;;;;;11.35;10.15;;;18.50;93.50;;;;;;5118534;28;20024;-90
2023/06/17 06:10:38;;;;;;;11.80;9.43;;;18.50;93.60;;;;;;5097197;28;20040;-90
2023/06/17 06:13:08;;;;;;;13.30;10.05;;;18.60;93.80;;;;;;5098286;28;20150;-90
2023/06/17 06:15:39;;;;;;;10.65;9.02;;;18.60;93.90;;;;;;5099181;28;20469;-90
2023/06/17 06:18:05;;;;;;;10.63;9.30;;;18.70;94.00;;;;;;5099166;28;20032;-91
2023/06/17 06:20:34;;;;;;;10.88;8.95;;;18.70;94.10;;;;;;5116163;28;20057;-91
2023/06/17 06:23:13;;;;;;;9.95;8.52;;;18.80;94.20;;;;;;5117253;28;20031;-90
2023/06/17 06:25:41;;;;;;;11.93;7.80;;;18.80;94.20;;;;;;5121521;28;20028;-90
2023/06/17 06:28:07;;;;;;;10.05;8.05;;;18.90;94.30;;;;;;5123530;28;20130;-90
2023/06/17 06:30:35;;;;;;;12.32;7.95;;;18.90;94.40;;;;;;5104880;28;20052;-90
2023/06/17 06:33:01;;;;;;;9.38;7.68;;;19.00;94.60;;;;;;5100378;28;20122;-89
2023/06/17 06:35:35;;;;;;;8.15;6.80;;;19.00;94.70;;;;;;5117485;28;20055;-89
2023/06/17 06:38:01;;;;;;;12.38;6.88;;;19.10;94.90;;;;;;5117235;28;20027;-90
2023/06/17 06:40:29;;;;;;;8.13;6.43;;;19.10;94.90;;;;;;5117090;28;20020;-91
2023/06/17 06:43:01;;;;;;;10.15;6.25;;;19.20;94.90;;;;;;5099277;28;20123;-90
2023/06/17 06:45:27;;;;;;;8.68;6.47;;;19.20;94.80;;;;;;5099425;28;20024;-90
2023/06/17 06:48:03;;;;;;;7.25;5.78;;;19.20;94.60;;;;;;5099864;28;20035;-90
2023/06/17 06:50:33;;;;;;;9.48;5.47;;;19.30;94.50;;;;;;5118912;28;20063;-90
2023/06/17 06:52:58;;;;;;;6.60;4.75;;;19.30;94.20;;;;;;5130154;28;20011;-90
2023/06/17 06:55:24;;;;;;;7.38;4.93;;;19.30;94.10;;;;;;5131234;28;20020;-90
2023/06/17 06:57:50;;;;;;;7.55;4.70;;;19.40;94.20;;;;;;5100236;28;20131;-90
2023/06/17 07:00:16;;;;;;;6.55;5.40;;;19.40;94.40;;;;;;5117155;28;20085;-90
2023/06/17 07:02:42;;;;;;;11.90;5.35;;;19.50;94.30;;;;;;5099674;28;20023;-90
2023/06/17 07:05:11;;;;;;;7.45;5.10;;;19.50;94.40;;;;;;5117685;28;20095;-90
2023/06/17 07:07:37;;;;;;;7.00;4.38;;;19.60;94.40;;;;;;5117754;28;20033;-90
2023/06/17 07:10:03;;;;;;;8.82;4.05;;;19.60;94.00;;;;;;5104536;28;20122;-91
2023/06/17 07:12:29;;;;;;;10.65;3.63;;;19.70;93.40;;;;;;5131845;28;20031;-90
2023/06/17 07:14:55;;;;;;;7.18;4.15;;;19.70;92.80;;;;;;5115256;28;20051;-90
2023/06/17 07:17:21;;;;;;;6.53;3.97;;;19.70;92.60;;;;;;5134384;28;20057;-91
2023/06/17 07:19:47;;;;;;;7.90;4.07;;;19.80;92.60;;;;;;5131507;28;20384;-91
2023/06/17 07:22:15;;;;;;;5.93;3.35;;;19.90;92.30;;;;;;5117541;28;20036;-90
2023/06/17 07:24:46;;;;;;;8.73;4.75;;;19.90;92.20;;;;;;5120068;28;20023;-89
2023/06/17 07:27:12;;;;;;;8.25;5.00;;;20.00;92.00;;;;;;5119197;28;20030;-89
2023/06/17 07:29:38;;;;;;;7.65;4.93;;;20.00;91.50;;;;;;5136559;28;20020;-89
2023/06/17 07:32:07;;;;;;;6.22;4.75;;;20.10;91.20;;;;;;5136710;28;20023;-89
2023/06/17 07:34:35;;;;;;;6.38;4.45;;;20.10;91.00;;;;;;5136931;28;20084;-89
2023/06/17 07:37:04;;;;;;;7.05;4.30;;;20.20;91.00;;;;;;5137909;28;20029;-90
2023/06/17 07:39:30;;;;;;;6.60;4.20;;;20.30;91.10;;;;;;5138112;28;20023;-88
2023/06/17 07:42:02;;;;;;;6.47;4.00;;;20.30;90.80;;;;;;5106665;28;20496;-90
2023/06/17 07:44:27;;;;;;;5.40;3.90;;;20.40;90.60;;;;;;5117150;28;20020;-89
2023/06/17 07:46:53;;;;;;;7.38;4.30;;;20.50;90.80;;;;;;5115066;28;20035;-90
2023/06/17 07:49:29;;;;;;;5.97;4.05;;;20.60;90.90;;;;;;5114302;28;20115;-90
2023/06/17 07:51:55;;;;;;;6.15;4.20;;;20.70;90.90;;;;;;5098105;28;20065;-92
2023/06/17 07:54:21;;;;;;;6.20;3.53;;;20.70;90.80;;;;;;5114507;28;20385;-91
2023/06/17 07:56:47;;;;;;;5.03;3.80;;;20.80;90.70;;;;;;5114198;28;20024;-91
2023/06/17 07:59:15;;;;;;;11.48;4.18;;;20.80;90.60;;;;;;5098742;28;20472;-91
2023/06/17 08:01:47;;;;;;;6.28;4.10;;;20.90;90.40;;;;;;5098456;28;20024;-91
2023/06/17 08:04:13;;;;;;;5.03;3.80;;;21.00;90.10;;;;;;5115436;28;20483;-92
2023/06/17 08:06:40;;;;;;;7.22;4.40;;;21.00;89.90;;;;;;5116298;28;20035;-91
2023/06/17 08:09:14;;;;;;;5.85;4.50;;;21.10;89.30;;;;;;5131834;28;20024;-91
2023/06/17 08:11:42;;;;;;;5.70;4.43;;;21.20;88.20;;;;;;5140121;28;20095;-91
2023/06/17 08:14:11;;;;;;;9.18;4.50;;;21.30;85.00;;;;;;5127511;28;20501;-92
2023/06/17 08:16:42;;;;;;;7.07;5.10;;;21.30;83.00;;;;;;5103910;28;20047;-90
2023/06/17 08:19:07;;;;;;;6.20;4.10;;;21.40;83.40;;;;;;5121642;28;20118;-91
2023/06/17 08:21:34;;;;;;;7.55;5.05;;;21.50;81.50;;;;;;5131721;28;20027;-90
2023/06/17 08:24:25;;;;;;;7.40;4.28;;;21.60;80.50;;;;;;5130470;28;20026;-91
2023/06/17 08:26:53;;;;;;;7.68;4.72;;;21.60;79.60;;;;;;5119495;28;20496;-90
2023/06/17 08:29:22;;;;;;;7.30;3.88;;;21.80;79.90;;;;;;5119052;28;20024;-92
2023/06/17 08:31:51;;;;;;;6.55;3.85;;;21.80;76.40;;;;;;5118748;28;20020;-93
2023/06/17 08:34:19;;;;;;;6.38;3.20;;;21.80;77.10;;;;;;5120523;28;20022;-93
2023/06/17 08:36:52;;;;;;;6.85;3.90;;;21.90;78.10;;;;;;5118630;28;20023;-90
2023/06/17 08:39:20;;;;;;;5.63;4.07;;;22.00;78.70;;;;;;5116532;28;20389;-87
2023/06/17 08:41:46;;;;;;;7.15;3.90;;;22.10;76.90;;;;;;5115924;28;20570;-89
2023/06/17 08:44:21;;;;;;;7.85;3.25;;;22.20;77.10;;;;;;5116455;28;20019;-88
2023/06/17 08:46:50;;;;;;;5.07;3.80;;;22.20;77.50;;;;;;5099647;28;20473;-87
2023/06/17 08:49:24;;;;;;;7.53;3.88;;;22.30;76.60;;;;;;5117709;28;20024;-87
2023/06/17 08:51:58;;;;;;;7.93;3.75;;;22.30;74.50;;;;;;5100263;28;20028;-86
2023/06/17 08:54:29;;;;;;;5.22;3.67;;;22.40;75.10;;;;;;5116664;28;20084;-87
2023/06/17 08:56:54;;;;;;;;;;;22.50;75.50;;;;;;5115961;28;20388;-77
2023/06/17 08:59:20;;;;;;;6.07;3.50;;;22.50;75.00;;;;;;5115324;28;19915;-77
2023/06/17 09:01:50;;;;;;;5.90;3.38;;;22.50;73.10;;;;;;5116477;28;20069;-89
2023/06/17 09:04:33;;;;;;;;;;;;;;;;;;;;;
2023/06/17 09:07:13;;;;;;;;;;;;;;;;;;;;;
2023/06/17 09:09:39;;;;;;;5.68;3.38;;;22.70;73.80;;;;;;5119730;28;20030;-90
2023/06/17 09:12:08;;;;;;;6.80;3.05;;;22.80;74.00;;;;;;5117624;28;20051;-91
2023/06/17 09:14:34;;;;;;;6.10;3.67;;;22.90;74.10;;;;;;5117636;28;20020;-92
2023/06/17 09:17:01;;;;;;;5.53;3.40;;;22.90;74.10;;;;;;5100252;28;20040;-91
2023/06/17 09:19:33;;;;;;;9.32;3.45;;;23.00;74.50;;;;;;5116648;28;20085;-90
2023/06/17 09:22:08;;;;;;;12.68;4.00;;;23.00;75.10;;;;;;5116869;28;20172;-91
2023/06/17 09:24:36;;;;;;;6.63;3.65;;;23.10;73.70;;;;;;5115886;28;20466;-90
2023/06/17 09:27:05;;;;;;;7.90;3.63;;;23.10;73.40;;;;;;5117723;28;20045;-89
2023/06/17 09:29:33;;;;;;;6.35;3.65;;;23.20;73.30;;;;;;5104687;28;20027;-90
2023/06/17 09:32:01;;;;;;;6.47;3.65;;;23.20;72.70;;;;;;5136604;28;20024;-88
2023/06/17 09:34:30;;;;;;;7.82;3.33;;;23.30;72.00;;;;;;5125375;28;20034;-89
2023/06/17 09:37:00;;;;;;;6.72;3.35;;;23.40;71.10;;;;;;5117484;28;20020;-90
2023/06/17 09:39:35;;;;;;;8.43;3.20;;;23.40;69.70;;;;;;5118249;28;20022;-90
2023/06/17 09:42:08;;;;;;;7.38;3.33;;;23.50;69.40;;;;;;5117905;28;20098;-91
2023/06/17 09:44:47;;;;;;;7.13;3.70;;;23.60;69.50;;;;;;5119782;28;20503;-90
2023/06/17 09:47:23;;;;;;;;;;;;;;;;;;;;;
2023/06/17 09:50:10;;;;;;;7.70;3.30;;;23.70;69.20;;;;;;5119978;28;20111;-90
2023/06/17 09:52:40;;;;;;;6.22;3.45;;;23.80;69.00;;;;;;5105590;28;20118;-92
2023/06/17 09:55:09;;;;;;;4.18;3.20;;;23.80;62.30;;;;;;5131817;28;20019;-90
2023/06/17 09:57:39;;;;;;;4.10;2.97;;;23.90;63.20;;;;;;5133546;28;20047;-91
2023/06/17 10:00:22;;;;;;;8.70;3.80;;;24.00;65.00;;;;;;5133116;28;20026;-90
2023/06/17 10:02:49;;;;;;;6.55;3.40;;;24.00;64.30;;;;;;5130404;28;20031;-90
2023/06/17 10:05:15;;;;;;;5.25;3.28;;;24.10;64.80;;;;;;5129023;28;20083;-90
2023/06/17 10:07:53;;;;;;;;;;;;;;;;;;;;;
2023/06/17 10:10:40;;;;;;;7.30;3.40;;;24.30;64.40;;;;;;5125619;28;20088;-94
2023/06/17 10:13:07;;;;;;;8.63;3.03;;;24.30;64.20;;;;;;5129249;28;20037;-92
2023/06/17 10:15:40;;;;;;;6.50;3.22;;;24.40;64.20;;;;;;5127659;28;20081;-92
2023/06/17 10:18:11;;;;;;;4.38;3.50;;;24.50;63.60;;;;;;5125875;28;20015;-92
2023/06/17 10:20:41;;;;;;;6.45;3.67;;;24.60;63.30;;;;;;5125484;28;20077;-91
2023/06/17 10:23:12;;;;;;;7.30;4.07;;;24.60;63.90;;;;;;5125148;28;20080;-91
2023/06/17 10:25:40;;;;;;;5.03;3.30;;;24.70;62.40;;;;;;5088233;28;20027;-90
2023/06/17 10:28:06;;;;;;;5.32;3.20;;;24.80;61.70;;;;;;5122074;28;20024;-90
2023/06/17 10:30:34;;;;;;;4.32;3.15;;;24.80;60.90;;;;;;5119347;28;20526;-86
2023/06/17 10:33:01;;;;;;;6.80;3.65;;;24.90;60.70;;;;;;5081280;28;20469;-86
2023/06/17 10:35:38;;;;;;;4.47;3.20;;;24.90;59.80;;;;;;5117291;28;20020;-88
2023/06/17 10:38:03;;;;;;;4.75;3.20;;;25.00;58.00;;;;;;5098673;28;20028;-87
2023/06/17 10:40:35;;;;;;;4.70;3.17;;;25.10;58.90;;;;;;5116454;28;20039;-85
2023/06/17 10:43:04;;;;;;;6.88;3.33;;;25.10;59.30;;;;;;5121859;28;20019;-87
2023/06/17 10:45:49;;;;;;;6.63;3.63;;;25.20;59.40;;;;;;5119497;27;20027;-85
2023/06/17 10:48:21;;;;;;;4.63;3.20;;;25.30;58.90;;;;;;5117353;28;20031;-85
2023/06/17 10:50:54;;;;;;;4.70;2.85;;;25.30;58.20;;;;;;5116742;28;20024;-87
2023/06/17 10:53:37;;;;;;;6.78;3.25;;;25.40;58.80;;;;;;5115939;28;20026;-84
2023/06/17 10:56:06;;;;;;;4.70;3.20;;;25.50;58.80;;;;;;5115404;28;20020;-85
2023/06/17 10:58:46;;;;;;;4.30;3.03;;;25.50;59.40;;;;;;5115409;28;20117;-88
2023/06/17 11:01:12;;;;;;;3.28;2.75;;;25.60;59.50;;;;;;5116286;28;20028;-86
2023/06/17 11:03:38;;;;;;;4.85;3.05;;;25.60;59.70;;;;;;5115715;28;20069;-83
2023/06/17 11:06:09;;;;;;;5.45;3.30;;;25.70;59.90;;;;;;5114323;28;20027;-84
2023/06/17 11:08:35;;;;;;;;;;;25.70;59.20;;;;;;5114955;28;20546;-86
2023/06/17 11:11:09;;;;;;;4.68;2.70;;;25.70;59.20;;;;;;5113787;28;19904;-85
2023/06/17 11:13:37;;;;;;;4.40;3.05;;;25.80;59.10;;;;;;5080593;28;20023;-82
2023/06/17 11:16:02;;;;;;;5.93;2.83;;;25.90;58.70;;;;;;5097038;28;20091;-84
2023/06/17 11:18:28;;;;;;;5.45;3.25;;;25.90;58.40;;;;;;5114320;28;20452;-86
2023/06/17 11:20:54;;;;;;;6.15;3.17;;;26.00;57.90;;;;;;5097554;28;20377;-84
2023/06/17 11:23:20;;;;;;;5.43;3.35;;;26.00;56.50;;;;;;5114712;28;20105;-87
2023/06/17 11:25:46;;;;;;;5.43;3.25;;;26.10;55.30;;;;;;5115018;28;20051;-86
2023/06/17 11:28:12;;;;;;;5.15;2.92;;;26.10;54.70;;;;;;5113650;28;20047;-83
2023/06/17 11:30:40;;;;;;;4.38;2.95;;;26.20;55.70;;;;;;5114814;28;20028;-85
2023/06/17 11:33:06;;;;;;;4.50;2.83;;;26.30;55.80;;;;;;5115493;28;20475;-85
2023/06/17 11:35:32;;;;;;;4.78;3.00;;;26.30;56.20;;;;;;5113348;28;20020;-85
2023/06/17 11:38:02;;;;;;;7.07;3.17;;;26.40;55.00;;;;;;5113699;28;20053;-82
2023/06/17 11:40:27;;;;;;;6.85;3.20;;;26.40;55.50;;;;;;5112300;28;20016;-84
2023/06/17 11:42:55;;;;;;;6.18;3.25;;;26.40;55.10;;;;;;5113823;28;20104;-83
2023/06/17 11:45:21;;;;;;;5.43;3.33;;;26.50;55.00;;;;;;5112674;28;20063;-84
2023/06/17 11:47:47;;;;;;;5.57;3.20;;;26.50;53.10;;;;;;5095726;28;20082;-85
2023/06/17 11:50:12;;;;;;;5.88;3.30;;;26.50;53.30;;;;;;5095816;28;20089;-84
2023/06/17 11:52:38;;;;;;;4.00;2.95;;;26.60;53.50;;;;;;5095763;28;20057;-84
2023/06/17 11:55:05;;;;;;;5.25;3.08;;;26.60;53.30;;;;;;5095429;28;20054;-84
2023/06/17 11:57:32;;;;;;;7.32;2.95;;;26.70;52.80;;;;;;5113077;28;20569;-87
2023/06/17 12:00:04;;;;;;;4.03;2.80;;;26.70;52.50;;;;;;5112953;28;20457;-86
2023/06/17 12:02:32;;;;;;;4.72;3.03;;;26.80;53.50;;;;;;5113015;28;20027;-87
2023/06/17 12:05:02;;;;;;;4.35;3.35;;;26.90;53.60;;;;;;5116278;28;20034;-85
2023/06/17 12:07:29;;;;;;;5.57;3.10;;;26.90;53.60;;;;;;5121371;28;20040;-92
2023/06/17 12:09:54;;;;;;;5.30;3.03;;;27.00;54.10;;;;;;5118112;28;20035;-87
2023/06/17 12:12:32;;;;;;;5.57;3.13;;;27.00;54.70;;;;;;5099811;28;20028;-92
2023/06/17 12:15:24;;;;;;;4.65;2.80;;;27.10;54.70;;;;;;5095882;28;20019;-93
2023/06/17 12:18:18;;;;;;;5.25;3.47;;;27.20;54.50;;;;;;5117524;28;20042;-93
2023/06/17 12:20:50;;;;;;;5.25;3.13;;;27.30;54.30;;;;;;5110085;28;20050;-93
2023/06/17 12:23:16;;;;;;;4.43;3.28;;;27.30;54.10;;;;;;5105909;28;20035;-93
2023/06/17 12:25:44;;;;;;;5.30;3.28;;;27.40;52.90;;;;;;5107726;28;20029;-91
2023/06/17 12:28:09;;;;;;;5.75;3.10;;;27.40;51.00;;;;;;5138141;28;20039;-93
2023/06/17 12:30:40;;;;;;;6.03;3.53;;;27.40;50.50;;;;;;5127591;28;20062;-91
2023/06/17 12:33:08;;;;;;;;;;;27.50;51.60;;;;;;5119991;28;20022;-91
2023/06/17 12:38:40;;;;;;;8.20;3.60;;;27.60;50.20;;;;;;5073076;22;20053;-92
2023/06/17 12:41:07;;;;;;;3.80;3.20;;;27.60;51.90;;;;;;5023473;28;20029;-92
2023/06/17 12:43:34;;;;;;;5.15;3.47;;;27.70;52.60;;;;;;5041740;28;20020;-91
2023/06/17 12:46:00;;;;;;;5.05;3.50;;;27.80;52.90;;;;;;5058364;28;20032;-88
2023/06/17 12:48:30;;;;;;;6.93;3.53;;;27.80;52.50;;;;;;5057619;28;20028;-87
2023/06/17 12:50:56;;;;;;;4.78;3.17;;;27.90;51.40;;;;;;5057086;28;20027;-88
2023/06/17 12:53:23;;;;;;;5.03;3.40;;;27.90;51.60;;;;;;5039762;28;20491;-88
2023/06/17 12:55:51;;;;;;;5.05;3.05;;;28.00;51.30;;;;;;5058663;28;20027;-88
2023/06/17 12:58:16;;;;;;;7.05;3.28;;;28.00;49.80;;;;;;5059246;28;20020;-88